Time;durP1;ratioP1;P1;durP2;ratioP2;P2;SDS_P1;SDS_P2;PMS_P1;PMS_P2;Temp;Humidity;BMP_temperature;BMP_pressure;BME280_temperature;BME280_humidity;BME280_pressure;Samples;Min_cycle;Max_cycle;Signal;HPM_P1;HPM_P2
2024/01/16 00:02:21;;;;;;;14.80;8.60;;;;;;;-1.73;100.00;98391.34;104395;1264;72708;-55
2024/01/16 00:04:48;;;;;;;18.60;9.50;;;;;;;-1.75;100.00;98391.90;104171;1269;59688;-54
2024/01/16 00:07:16;;;;;;;18.10;10.00;;;;;;;-1.77;100.00;98384.55;104054;1272;59675;-54
2024/01/16 00:09:45;;;;;;;18.20;9.30;;;;;;;-1.78;100.00;98383.70;104046;1269;72163;-54
2024/01/16 00:12:12;;;;;;;14.90;7.90;;;;;;;-1.81;100.00;98384.83;104036;1269;65500;-54
2024/01/16 00:14:40;;;;;;;13.10;8.40;;;;;;;-1.84;100.00;98389.98;104198;1267;73604;-54
2024/01/16 00:17:08;;;;;;;14.20;7.80;;;;;;;-1.86;100.00;98390.89;105084;1267;59852;-54
2024/01/16 00:19:36;;;;;;;15.50;8.20;;;;;;;-1.87;100.00;98389.17;104508;1264;60329;-53
2024/01/16 00:22:04;;;;;;;13.30;8.70;;;;;;;-1.89;100.00;98387.98;104517;1264;72956;-53
2024/01/16 00:24:32;;;;;;;11.50;6.90;;;;;;;-1.89;100.00;98385.71;104999;1264;65726;-53
2024/01/16 00:26:59;;;;;;;17.00;7.90;;;;;;;-1.88;100.00;98386.92;104317;1263;72730;-54
2024/01/16 00:29:27;;;;;;;15.80;8.10;;;;;;;-1.87;100.00;98383.00;104297;1267;61490;-53
2024/01/16 00:31:55;;;;;;;12.30;7.60;;;;;;;-1.85;100.00;98381.02;104194;1263;60504;-54
2024/01/16 00:34:22;;;;;;;15.50;8.70;;;;;;;-1.82;100.00;98373.06;104313;1262;73159;-55
2024/01/16 00:36:49;;;;;;;17.30;9.40;;;;;;;-1.80;100.00;98380.23;104496;1266;66748;-52
2024/01/16 00:39:17;;;;;;;16.20;8.90;;;;;;;-1.78;100.00;98385.28;104450;1263;71072;-54
2024/01/16 00:41:44;;;;;;;15.10;8.50;;;;;;;-1.77;100.00;98389.66;104369;1266;59723;-54
2024/01/16 00:44:12;;;;;;;20.70;8.90;;;;;;;-1.78;100.00;98382.80;105512;1264;59753;-54
2024/01/16 00:46:39;;;;;;;15.70;8.80;;;;;;;-1.78;100.00;98371.90;104459;1264;70882;-54
2024/01/16 00:49:07;;;;;;;14.00;8.30;;;;;;;-1.78;100.00;98381.59;104206;1270;67025;-54
2024/01/16 00:51:35;;;;;;;14.50;9.30;;;;;;;-1.78;100.00;98382.83;104742;1263;71477;-54
2024/01/16 00:54:02;;;;;;;17.20;8.90;;;;;;;-1.79;100.00;98374.25;104282;1269;60634;-53
2024/01/16 00:56:32;;;;;;;15.70;8.50;;;;;;;-1.80;100.00;98371.98;104277;1266;61919;-54
2024/01/16 00:59:00;;;;;;;16.00;9.10;;;;;;;-1.82;100.00;98365.84;107788;1257;71641;-54
2024/01/16 01:01:27;;;;;;;19.50;10.30;;;;;;;-1.83;100.00;98369.39;104791;1260;67454;-54
2024/01/16 01:03:54;;;;;;;15.20;9.00;;;;;;;-1.85;100.00;98363.95;104769;1258;73613;-53
2024/01/16 01:06:22;;;;;;;12.40;7.70;;;;;;;-1.86;100.00;98371.02;104835;1257;59733;-55
2024/01/16 01:08:49;;;;;;;13.10;8.40;;;;;;;-1.86;100.00;98369.80;104779;1258;60628;-51
2024/01/16 01:11:17;;;;;;;13.90;8.40;;;;;;;-1.86;100.00;98371.20;104895;1254;73351;-54
2024/01/16 01:13:44;;;;;;;13.90;8.30;;;;;;;-1.85;100.00;98374.69;104817;1256;65504;-54
2024/01/16 01:16:11;;;;;;;18.10;9.50;;;;;;;-1.83;100.00;98374.49;104741;1260;72372;-54
2024/01/16 01:18:39;;;;;;;18.80;9.80;;;;;;;-1.82;100.00;98377.29;104926;1263;59617;-54
2024/01/16 01:21:06;;;;;;;16.40;9.80;;;;;;;-1.80;100.00;98377.08;104965;1254;59631;-53
2024/01/16 01:23:33;;;;;;;15.40;8.20;;;;;;;-1.79;100.00;98378.29;104929;1259;72303;-53
2024/01/16 01:26:01;;;;;;;18.00;10.40;;;;;;;-1.78;100.00;98378.42;105002;1256;65859;-52
2024/01/16 01:28:29;;;;;;;19.70;10.50;;;;;;;-1.79;100.00;98370.54;106165;1254;72757;-53
2024/01/16 01:30:56;;;;;;;18.90;11.60;;;;;;;-1.80;100.00;98374.08;104611;1263;59682;-53
2024/01/16 01:33:23;;;;;;;17.00;10.20;;;;;;;-1.81;100.00;98381.84;104849;1254;59727;-54
2024/01/16 01:35:51;;;;;;;17.20;9.90;;;;;;;-1.84;100.00;98375.54;105102;1256;71921;-56
2024/01/16 01:38:19;;;;;;;17.00;10.40;;;;;;;-1.86;100.00;98383.15;108959;1255;69670;-54
2024/01/16 01:40:46;;;;;;;19.30;11.50;;;;;;;-1.87;100.00;98389.88;108973;1254;71535;-54
2024/01/16 01:43:25;;;;;;;17.40;9.70;;;;;;;-1.89;100.00;98392.39;109011;1259;61139;-55
2024/01/16 01:46:14;;;;;;;20.00;10.50;;;;;;;-1.91;100.00;98417.37;105971;1260;59864;-54
2024/01/16 01:48:42;;;;;;;16.40;9.70;;;;;;;-1.91;100.00;98423.88;109003;1257;73095;-54
2024/01/16 01:51:10;;;;;;;17.10;8.90;;;;;;;-1.90;100.00;98412.80;109031;1259;65862;-54
2024/01/16 01:53:39;;;;;;;12.80;7.80;;;;;;;-1.89;100.00;98407.31;108677;1254;71401;-54
2024/01/16 01:56:08;;;;;;;20.40;10.60;;;;;;;-1.87;100.00;98406.58;109025;1257;59338;-54
2024/01/16 01:58:36;;;;;;;14.50;8.40;;;;;;;-1.84;100.00;98406.67;105590;1257;60081;-53
2024/01/16 02:01:05;;;;;;;16.80;8.60;;;;;;;-1.82;100.00;98395.39;104594;1255;72665;-54
2024/01/16 02:03:35;;;;;;;17.80;9.70;;;;;;;-1.79;100.00;98383.89;105609;1257;65855;-54
2024/01/16 02:06:03;;;;;;;13.20;9.00;;;;;;;-1.77;100.00;98383.33;105087;1259;76424;-54
2024/01/16 02:08:30;;;;;;;14.30;8.80;;;;;;;-1.77;100.00;98385.95;105733;1259;59560;-54
2024/01/16 02:10:57;;;;;;;14.30;9.40;;;;;;;-1.76;100.00;98384.88;104906;1259;59605;-54
2024/01/16 02:13:25;;;;;;;16.60;9.90;;;;;;;-1.77;100.00;98378.92;105009;1260;73201;-53
2024/01/16 02:15:52;;;;;;;15.10;8.30;;;;;;;-1.78;100.00;98388.97;105030;1260;67005;-54
2024/01/16 02:18:20;;;;;;;13.50;8.90;;;;;;;-1.80;100.00;98389.20;105141;1260;70800;-54
2024/01/16 02:20:47;;;;;;;15.50;9.30;;;;;;;-1.82;100.00;98389.60;105971;1260;59700;-54
2024/01/16 02:23:15;;;;;;;15.90;10.50;;;;;;;-1.85;100.00;98394.92;104803;1259;60414;-54
2024/01/16 02:25:42;;;;;;;18.50;10.30;;;;;;;-1.88;100.00;98396.05;106095;1259;71827;-54
2024/01/16 02:28:10;;;;;;;16.10;10.20;;;;;;;-1.89;100.00;98400.98;105051;1254;65585;-55
2024/01/16 02:30:37;;;;;;;17.20;10.20;;;;;;;-1.91;100.00;98409.30;104981;1255;71463;-55
2024/01/16 02:33:04;;;;;;;19.90;10.50;;;;;;;-1.94;100.00;98405.47;104800;1258;60636;-54
2024/01/16 02:35:32;;;;;;;13.20;7.90;;;;;;;-1.97;100.00;98402.91;106203;1260;59671;-55
2024/01/16 02:38:00;;;;;;;16.80;9.30;;;;;;;-1.98;100.00;98414.36;104844;1258;73041;-55
2024/01/16 02:40:27;;;;;;;17.90;9.50;;;;;;;-1.99;100.00;98408.22;105083;1254;65894;-54
2024/01/16 02:42:55;;;;;;;15.00;8.90;;;;;;;-2.00;100.00;98413.67;104893;1259;72683;-54
2024/01/16 02:45:22;;;;;;;12.90;7.50;;;;;;;-2.00;100.00;98413.50;104873;1259;60303;-55
2024/01/16 02:47:49;;;;;;;15.20;8.40;;;;;;;-1.98;100.00;98404.69;105095;1255;59691;-54
2024/01/16 02:50:17;;;;;;;14.50;9.00;;;;;;;-1.96;100.00;98396.92;105189;1259;73066;-54
2024/01/16 02:52:44;;;;;;;12.80;8.60;;;;;;;-1.94;100.00;98394.05;105156;1260;65501;-53
2024/01/16 02:55:12;;;;;;;15.10;8.70;;;;;;;-1.91;100.00;98396.63;105051;1258;72740;-56
2024/01/16 02:57:39;;;;;;;17.60;9.10;;;;;;;-1.88;100.00;98399.73;105118;1268;59684;-53
2024/01/16 03:00:08;;;;;;;16.20;10.50;;;;;;;-1.86;100.00;98393.36;105077;1254;60263;-53
2024/01/16 03:02:35;;;;;;;16.90;10.00;;;;;;;-1.86;100.00;98393.00;105571;1258;71789;-53
2024/01/16 03:05:05;;;;;;;13.20;7.80;;;;;;;-1.87;100.00;98397.77;108208;1257;67751;-54
2024/01/16 03:07:32;;;;;;;14.20;9.00;;;;;;;-1.88;100.00;98403.96;105748;1260;72699;-54
2024/01/16 03:10:00;;;;;;;13.40;8.60;;;;;;;-1.90;100.00;98409.63;104839;1260;59634;-54
2024/01/16 03:12:27;;;;;;;14.30;9.30;;;;;;;-1.93;100.00;98412.65;104902;1257;60290;-53
2024/01/16 03:14:54;;;;;;;13.90;8.80;;;;;;;-1.96;100.00;98411.15;104986;1260;74754;-53
2024/01/16 03:17:22;;;;;;;15.20;8.10;;;;;;;-1.99;100.00;98410.33;104951;1257;66639;-54
2024/01/16 03:19:49;;;;;;;12.30;7.20;;;;;;;-2.00;100.00;98415.27;104840;1259;70659;-54
2024/01/16 03:22:18;;;;;;;14.70;8.20;;;;;;;-2.00;100.00;98418.61;104715;1259;60891;-54
2024/01/16 03:24:46;;;;;;;14.60;8.40;;;;;;;-1.99;100.00;98415.61;105614;1267;60546;-52
2024/01/16 03:27:13;;;;;;;13.20;8.50;;;;;;;-1.97;100.00;98412.75;104733;1259;73758;-54
2024/01/16 03:29:40;;;;;;;14.00;7.50;;;;;;;-1.94;100.00;98412.68;104934;1257;67074;-53
2024/01/16 03:32:08;;;;;;;13.50;8.00;;;;;;;-1.92;100.00;98407.71;105050;1257;71511;-54
2024/01/16 03:34:35;;;;;;;13.00;8.50;;;;;;;-1.90;100.00;98405.76;104779;1260;60488;-55
2024/01/16 03:37:03;;;;;;;12.00;7.60;;;;;;;-1.89;100.00;98411.36;104865;1254;60383;-53
2024/01/16 03:39:30;;;;;;;14.20;9.00;;;;;;;-1.88;100.00;98418.73;104928;1258;73941;-54
2024/01/16 03:41:57;;;;;;;15.50;8.60;;;;;;;-1.87;100.00;98422.94;104792;1255;66786;-55
2024/01/16 03:44:25;;;;;;;13.30;7.80;;;;;;;-1.88;100.00;98410.84;104987;1260;72804;-55
2024/01/16 03:46:52;;;;;;;13.70;9.10;;;;;;;-1.89;100.00;98402.92;105077;1259;60558;-55
2024/01/16 03:49:19;;;;;;;16.10;7.60;;;;;;;-1.91;100.00;98405.23;105061;1259;60783;-53
2024/01/16 03:51:47;;;;;;;16.50;9.40;;;;;;;-1.93;100.00;98400.52;105104;1260;71595;-52
2024/01/16 03:54:14;;;;;;;16.40;9.70;;;;;;;-1.95;100.00;98394.23;104908;1254;66226;-55
2024/01/16 03:56:42;;;;;;;22.10;11.10;;;;;;;-1.98;100.00;98394.14;104919;1260;71786;-54
2024/01/16 03:59:09;;;;;;;22.00;11.80;;;;;;;-2.01;100.00;98394.37;104894;1260;60590;-54
2024/01/16 04:01:36;;;;;;;21.60;10.90;;;;;;;-2.03;100.00;98400.36;104845;1254;60546;-54
2024/01/16 04:04:07;;;;;;;19.90;10.10;;;;;;;-2.04;100.00;98397.58;105327;1257;71705;-54
2024/01/16 04:06:35;;;;;;;20.30;10.40;;;;;;;-2.04;100.00;98395.46;104956;1267;66052;-52
2024/01/16 04:09:03;;;;;;;19.00;9.10;;;;;;;-2.03;100.00;98390.89;105026;1260;70470;-54
2024/01/16 04:11:30;;;;;;;16.20;8.80;;;;;;;-2.02;100.00;98389.27;104809;1254;60966;-53
2024/01/16 04:13:57;;;;;;;14.90;8.80;;;;;;;-2.00;100.00;98387.85;104926;1254;60479;-53
2024/01/16 04:16:25;;;;;;;17.00;9.30;;;;;;;-1.99;100.00;98397.84;104889;1254;72735;-52
2024/01/16 04:18:52;;;;;;;13.60;7.80;;;;;;;-1.97;100.00;98399.22;104880;1258;68105;-53
2024/01/16 04:21:20;;;;;;;16.10;9.30;;;;;;;-1.96;100.00;98397.09;105048;1260;71067;-54
2024/01/16 04:23:47;;;;;;;15.00;9.50;;;;;;;-1.95;100.00;98398.29;104853;1257;60517;-54
2024/01/16 04:26:15;;;;;;;16.10;7.90;;;;;;;-1.97;100.00;98400.09;104940;1259;60418;-53
2024/01/16 04:28:42;;;;;;;18.00;10.30;;;;;;;-1.98;100.00;98396.61;108993;1254;73831;-53
2024/01/16 04:31:11;;;;;;;14.60;8.70;;;;;;;-2.00;100.00;98395.92;109071;1254;65901;-53
2024/01/16 04:33:40;;;;;;;15.70;9.40;;;;;;;-2.01;100.00;98398.05;109112;1254;71270;-53
2024/01/16 04:36:07;;;;;;;13.40;8.40;;;;;;;-2.03;100.00;98399.48;108983;1254;59318;-53
2024/01/16 04:38:35;;;;;;;15.40;9.40;;;;;;;-2.04;100.00;98407.79;108995;1254;58819;-54
2024/01/16 04:41:02;;;;;;;16.80;10.40;;;;;;;-2.05;100.00;98411.50;109090;1254;72434;-55
2024/01/16 04:43:30;;;;;;;16.00;10.50;;;;;;;-2.04;100.00;98415.85;105143;1260;67160;-56
2024/01/16 04:45:57;;;;;;;15.90;8.70;;;;;;;-2.03;100.00;98416.89;104919;1254;73314;-55
2024/01/16 04:48:29;;;;;;;18.50;10.10;;;;;;;-2.02;100.00;98417.93;109011;1254;59279;-54
2024/01/16 04:50:57;;;;;;;16.40;8.80;;;;;;;-2.01;100.00;98415.10;109061;1254;59074;-54
2024/01/16 04:53:24;;;;;;;15.80;9.80;;;;;;;-2.00;100.00;98413.68;108249;1254;72541;-55
2024/01/16 04:55:52;;;;;;;17.60;9.20;;;;;;;-1.99;100.00;98414.02;104935;1258;65938;-54
2024/01/16 04:58:20;;;;;;;16.30;9.80;;;;;;;-1.99;100.00;98414.89;104979;1254;73109;-53
2024/01/16 05:00:47;;;;;;;16.00;9.80;;;;;;;-1.98;100.00;98418.92;104892;1254;60338;-54
2024/01/16 05:03:14;;;;;;;17.50;10.70;;;;;;;-1.98;100.00;98421.02;104900;1254;60456;-55
2024/01/16 05:05:42;;;;;;;15.80;9.50;;;;;;;-1.99;100.00;98416.30;105916;1254;72638;-54
2024/01/16 05:08:09;;;;;;;20.80;10.10;;;;;;;-2.00;100.00;98423.70;104850;1253;65234;-54
2024/01/16 05:10:37;;;;;;;19.20;10.50;;;;;;;-2.01;100.00;98426.01;105050;1254;71373;-55
2024/01/16 05:13:05;;;;;;;20.80;10.90;;;;;;;-2.03;100.00;98424.63;104799;1253;60990;-53
2024/01/16 05:15:32;;;;;;;19.60;10.50;;;;;;;-2.04;100.00;98424.85;105141;1268;62456;-53
2024/01/16 05:17:59;;;;;;;19.70;10.60;;;;;;;-2.05;100.00;98421.53;104623;1254;76248;-54
2024/01/16 05:20:27;;;;;;;16.90;10.50;;;;;;;-2.04;100.00;98421.85;105698;1254;65878;-53
2024/01/16 05:22:54;;;;;;;17.30;10.30;;;;;;;-2.04;100.00;98424.11;105224;1255;72744;-53
2024/01/16 05:25:22;;;;;;;16.50;8.70;;;;;;;-2.01;100.00;98426.00;104667;1259;60433;-53
2024/01/16 05:27:49;;;;;;;21.70;11.60;;;;;;;-1.99;100.00;98430.02;105173;1254;60476;-54
2024/01/16 05:30:17;;;;;;;28.80;14.80;;;;;;;-1.96;100.00;98427.30;104747;1254;73786;-53
2024/01/16 05:32:44;;;;;;;31.30;13.50;;;;;;;-1.93;100.00;98436.39;104762;1258;66928;-54
2024/01/16 05:35:12;;;;;;;31.80;14.70;;;;;;;-1.91;100.00;98426.17;104798;1260;72722;-56
2024/01/16 05:37:39;;;;;;;43.80;20.30;;;;;;;-1.90;100.00;98428.96;104555;1254;62517;-54
2024/01/16 05:40:08;;;;;;;39.30;18.10;;;;;;;-1.89;100.00;98434.92;105056;1258;61093;-54
2024/01/16 05:42:35;;;;;;;37.60;20.10;;;;;;;-1.89;100.00;98442.48;108926;1254;72684;-55
2024/01/16 05:45:03;;;;;;;32.90;18.60;;;;;;;-1.90;100.00;98447.08;108349;1254;65592;-54
2024/01/16 05:47:30;;;;;;;28.10;17.20;;;;;;;-1.92;100.00;98444.81;105229;1254;72688;-54
2024/01/16 05:49:58;;;;;;;23.80;14.90;;;;;;;-1.95;100.00;98443.63;105198;1263;60410;-54
2024/01/16 05:52:25;;;;;;;28.70;14.10;;;;;;;-1.97;100.00;98446.33;105336;1254;60607;-54
2024/01/16 05:54:57;;;;;;;19.20;10.90;;;;;;;-1.98;100.00;98447.40;105086;1259;73953;-54
2024/01/16 05:57:24;;;;;;;23.20;11.90;;;;;;;-2.00;100.00;98453.23;105168;1258;67246;-54
2024/01/16 05:59:51;;;;;;;18.40;11.40;;;;;;;-2.01;100.00;98458.52;104993;1260;72383;-53
2024/01/16 06:02:19;;;;;;;18.30;10.20;;;;;;;-2.03;100.00;98468.21;104505;1261;60457;-54
2024/01/16 06:04:46;;;;;;;16.60;9.10;;;;;;;-2.04;100.00;98473.36;104996;1260;60885;-54
2024/01/16 06:07:13;;;;;;;18.10;9.00;;;;;;;-2.06;100.00;98485.52;105166;1254;72695;-53
2024/01/16 06:09:41;;;;;;;18.40;9.60;;;;;;;-2.07;100.00;98485.55;108925;1254;65657;-55
2024/01/16 06:12:09;;;;;;;17.40;9.50;;;;;;;-2.06;100.00;98489.75;105897;1254;74963;-54
2024/01/16 06:14:36;;;;;;;13.80;7.30;;;;;;;-2.04;100.00;98492.16;104968;1259;60972;-54
2024/01/16 06:17:05;;;;;;;19.30;9.40;;;;;;;-2.02;100.00;98493.34;104787;1257;60395;-53
2024/01/16 06:19:33;;;;;;;13.10;9.10;;;;;;;-1.99;100.00;98495.59;105183;1257;72607;-54
2024/01/16 06:22:01;;;;;;;18.20;9.80;;;;;;;-1.94;100.00;98496.55;104913;1261;66269;-54
2024/01/16 06:24:29;;;;;;;16.60;9.60;;;;;;;-1.89;100.00;98498.58;104905;1254;73165;-54
2024/01/16 06:26:57;;;;;;;15.40;9.80;;;;;;;-1.86;100.00;98496.03;104927;1254;61299;-55
2024/01/16 06:29:24;;;;;;;16.40;9.20;;;;;;;-1.83;100.00;98496.34;108110;1255;60435;-51
2024/01/16 06:32:01;;;;;;;16.60;10.60;;;;;;;-1.81;100.00;98503.70;105006;1258;71626;-53
2024/01/16 06:34:28;;;;;;;14.70;9.10;;;;;;;-1.80;100.00;98502.63;104806;1259;65886;-54
2024/01/16 06:36:56;;;;;;;17.60;9.50;;;;;;;-1.79;100.00;98497.52;104940;1254;72777;-53
2024/01/16 06:39:24;;;;;;;18.60;10.70;;;;;;;-1.79;100.00;98499.27;104938;1254;60630;-54
2024/01/16 06:41:51;;;;;;;17.70;9.70;;;;;;;-1.80;100.00;98500.51;104899;1259;61131;-54
2024/01/16 06:44:18;;;;;;;18.10;9.80;;;;;;;-1.78;100.00;98498.36;104868;1255;73310;-54
2024/01/16 06:46:46;;;;;;;17.50;10.70;;;;;;;-1.78;100.00;98500.46;104956;1260;65841;-55
2024/01/16 06:49:13;;;;;;;19.40;10.90;;;;;;;-1.78;100.00;98500.13;104751;1257;71537;-54
2024/01/16 06:51:41;;;;;;;18.80;11.20;;;;;;;-1.78;100.00;98503.11;105004;1257;60621;-54
2024/01/16 06:54:08;;;;;;;17.10;9.80;;;;;;;-1.77;100.00;98509.23;105031;1254;60466;-54
2024/01/16 06:56:36;;;;;;;19.90;10.20;;;;;;;-1.75;100.00;98508.15;105182;1259;72971;-54
2024/01/16 06:59:03;;;;;;;16.00;10.00;;;;;;;-1.72;100.00;98511.42;105988;1254;65864;-52
2024/01/16 07:01:32;;;;;;;14.20;7.90;;;;;;;-1.67;100.00;98508.52;104951;1254;71781;-53
2024/01/16 07:04:01;;;;;;;15.50;8.50;;;;;;;-1.61;100.00;98512.80;105032;1254;60318;-54
2024/01/16 07:06:28;;;;;;;13.70;8.40;;;;;;;-1.54;100.00;98520.75;105847;1254;60470;-54
2024/01/16 07:08:56;;;;;;;17.10;8.80;;;;;;;-1.44;100.00;98516.52;107180;1258;73897;-54
2024/01/16 07:11:24;;;;;;;11.40;7.90;;;;;;;-1.37;100.00;98525.70;105061;1260;66465;-55
2024/01/16 07:13:51;;;;;;;13.20;8.60;;;;;;;-1.31;100.00;98526.28;105082;1260;72765;-54
2024/01/16 07:16:19;;;;;;;13.10;8.20;;;;;;;-1.27;100.00;98526.73;104984;1254;60395;-54
2024/01/16 07:18:46;;;;;;;14.80;8.00;;;;;;;-1.25;100.00;98531.26;105021;1254;62690;-54
2024/01/16 07:21:18;;;;;;;15.30;8.50;;;;;;;-1.26;100.00;98528.64;108886;1254;73768;-55
2024/01/16 07:23:46;;;;;;;12.70;8.20;;;;;;;-1.29;100.00;98531.34;109040;1253;66905;-53
2024/01/16 07:26:14;;;;;;;14.10;7.90;;;;;;;-1.30;100.00;98534.35;105128;1255;72737;-55
2024/01/16 07:28:41;;;;;;;15.40;9.10;;;;;;;-1.30;100.00;98540.00;105066;1254;60552;-52
2024/01/16 07:31:09;;;;;;;14.90;7.40;;;;;;;-1.30;100.00;98539.81;109120;1253;61088;-54
2024/01/16 07:33:37;;;;;;;13.60;6.80;;;;;;;-1.29;100.00;98539.80;109042;1254;73203;-53
2024/01/16 07:36:05;;;;;;;12.40;7.40;;;;;;;-1.28;100.00;98541.38;108921;1254;67957;-54
2024/01/16 07:38:33;;;;;;;15.20;8.60;;;;;;;-1.28;100.00;98540.83;108971;1254;72914;-53
2024/01/16 07:41:01;;;;;;;15.40;8.80;;;;;;;-1.27;100.00;98542.91;106944;1254;60434;-54
2024/01/16 07:43:29;;;;;;;13.10;6.50;;;;;;;-1.24;100.00;98541.27;104960;1254;60435;-53
2024/01/16 07:45:56;;;;;;;14.10;6.10;;;;;;;-1.20;100.00;98545.77;106321;1256;74315;-54
2024/01/16 07:48:23;;;;;;;11.00;7.20;;;;;;;-1.16;100.00;98547.44;105004;1258;66895;-54
2024/01/16 07:50:51;;;;;;;9.70;5.70;;;;;;;-1.09;100.00;98543.08;109082;1254;70887;-55
2024/01/16 07:53:19;;;;;;;8.80;5.60;;;;;;;-1.01;100.00;98543.08;105842;1254;60527;-54
2024/01/16 07:55:46;;;;;;;13.20;7.10;;;;;;;-0.94;100.00;98545.92;104946;1254;60501;-54
2024/01/16 07:58:13;;;;;;;12.10;6.30;;;;;;;-0.85;100.00;98546.61;104844;1254;72002;-55
2024/01/16 08:00:41;;;;;;;11.20;6.30;;;;;;;-0.76;100.00;98551.86;105056;1255;65662;-54
2024/01/16 08:03:11;;;;;;;10.10;5.70;;;;;;;-0.69;100.00;98545.21;104930;1260;70742;-55
2024/01/16 08:05:39;;;;;;;11.50;6.10;;;;;;;-0.66;100.00;98545.83;105383;1254;62159;-54
2024/01/16 08:08:10;;;;;;;10.50;5.90;;;;;;;-0.63;100.00;98549.80;105645;1253;60855;-52
2024/01/16 08:10:42;;;;;;;9.70;5.40;;;;;;;-0.61;100.00;98544.85;105076;1254;73821;-53
2024/01/16 08:13:10;;;;;;;8.50;4.60;;;;;;;-0.61;100.00;98548.55;104844;1254;65841;-54
2024/01/16 08:15:37;;;;;;;6.90;3.70;;;;;;;-0.64;100.00;98547.55;104965;1260;72719;-52
2024/01/16 08:18:04;;;;;;;10.00;5.30;;;;;;;-0.66;100.00;98539.14;104977;1254;60613;-53
2024/01/16 08:20:32;;;;;;;8.90;5.30;;;;;;;-0.67;100.00;98544.42;105484;1253;60454;-55
2024/01/16 08:23:00;;;;;;;8.80;4.00;;;;;;;-0.66;100.00;98549.70;105689;1254;74129;-53
2024/01/16 08:25:27;;;;;;;7.50;3.40;;;;;;;-0.66;100.00;98549.34;104957;1259;67106;-55
2024/01/16 08:27:54;;;;;;;7.40;3.80;;;;;;;-0.65;100.00;98548.09;105046;1255;73206;-51
2024/01/16 08:30:22;;;;;;;5.10;2.50;;;;;;;-0.62;100.00;98555.96;105255;1254;60533;-53
2024/01/16 08:32:50;;;;;;;9.40;3.50;;;;;;;-0.62;100.00;98553.14;104998;1257;60422;-54
2024/01/16 08:35:17;;;;;;;6.50;3.40;;;;;;;-0.62;100.00;98553.50;105020;1254;73985;-55
2024/01/16 08:37:45;;;;;;;5.40;3.00;;;;;;;-0.63;100.00;98552.29;105562;1257;66073;-53
2024/01/16 08:40:12;;;;;;;5.10;2.50;;;;;;;-0.62;100.00;98558.96;104894;1259;71487;-53
2024/01/16 08:42:40;;;;;;;5.80;2.70;;;;;;;-0.62;100.00;98559.66;105093;1259;60526;-54
2024/01/16 08:45:08;;;;;;;7.00;3.20;;;;;;;-0.61;100.00;98560.71;105040;1254;62176;-54
2024/01/16 08:47:35;;;;;;;6.20;2.90;;;;;;;-0.62;100.00;98561.95;105622;1255;73935;-54
2024/01/16 08:50:03;;;;;;;6.60;3.00;;;;;;;-0.65;100.00;98570.83;105099;1259;67085;-54
2024/01/16 08:52:30;;;;;;;5.10;2.70;;;;;;;-0.69;100.00;98568.62;105758;1258;73267;-53
2024/01/16 08:54:58;;;;;;;7.20;4.20;;;;;;;-0.72;100.00;98568.16;104923;1258;60637;-53
2024/01/16 08:57:25;;;;;;;6.70;3.70;;;;;;;-0.73;100.00;98568.36;104970;1254;60906;-54
2024/01/16 08:59:57;;;;;;;7.70;4.00;;;;;;;-0.74;100.00;98566.27;104872;1254;73041;-53
2024/01/16 09:02:28;;;;;;;6.20;3.20;;;;;;;-0.73;100.00;98564.48;104775;1257;65987;-54
2024/01/16 09:04:56;;;;;;;8.40;2.60;;;;;;;-0.70;100.00;98577.47;106516;1257;72668;-54
2024/01/16 09:07:24;;;;;;;5.30;3.40;;;;;;;-0.67;100.00;98577.20;105388;1259;60817;-54
2024/01/16 09:09:52;;;;;;;4.90;2.50;;;;;;;-0.61;100.00;98582.38;104784;1257;60511;-55
2024/01/16 09:12:19;;;;;;;7.40;3.30;;;;;;;-0.56;100.00;98580.66;104983;1254;72702;-54
2024/01/16 09:14:47;;;;;;;6.50;3.20;;;;;;;-0.50;100.00;98587.57;105061;1254;64697;-53
2024/01/16 09:17:14;;;;;;;6.80;3.50;;;;;;;-0.45;100.00;98587.64;104889;1257;70470;-54
2024/01/16 09:19:42;;;;;;;7.00;2.90;;;;;;;-0.42;100.00;98587.40;105368;1259;61410;-54
2024/01/16 09:22:09;;;;;;;5.80;3.40;;;;;;;-0.42;100.00;98588.64;104798;1257;61061;-54
2024/01/16 09:24:37;;;;;;;8.00;3.70;;;;;;;-0.43;100.00;98590.05;104714;1257;73925;-54
2024/01/16 09:27:06;;;;;;;5.90;2.90;;;;;;;-0.41;100.00;98594.59;104926;1254;64935;-52
2024/01/16 09:29:34;;;;;;;6.50;3.60;;;;;;;-0.38;100.00;98592.77;106353;1258;71689;-51
2024/01/16 09:32:01;;;;;;;8.30;3.70;;;;;;;-0.37;100.00;98593.81;105134;1254;60882;-53
2024/01/16 09:34:29;;;;;;;5.50;3.60;;;;;;;-0.37;100.00;98598.74;104930;1254;60983;-53
2024/01/16 09:36:59;;;;;;;5.70;3.60;;;;;;;-0.35;100.00;98601.33;104951;1258;73081;-54
2024/01/16 09:39:26;;;;;;;5.40;2.90;;;;;;;-0.32;100.00;98602.68;104886;1254;67321;-54
2024/01/16 09:41:53;;;;;;;6.30;3.20;;;;;;;-0.32;100.00;98598.61;104885;1253;71435;-55
2024/01/16 09:44:21;;;;;;;7.30;3.70;;;;;;;-0.33;100.00;98597.92;104614;1254;60492;-55
2024/01/16 09:46:49;;;;;;;5.70;3.70;;;;;;;-0.35;100.00;98599.58;104947;1260;60504;-55
2024/01/16 09:49:17;;;;;;;7.00;3.40;;;;;;;-0.37;100.00;98600.34;105447;1259;72835;-54
2024/01/16 09:51:45;;;;;;;5.40;2.70;;;;;;;-0.40;100.00;98602.33;104923;1257;68140;-54
2024/01/16 09:54:13;;;;;;;3.60;1.80;;;;;;;-0.41;100.00;98604.63;105376;1254;71975;-52
2024/01/16 09:56:45;;;;;;;5.00;2.40;;;;;;;-0.40;100.00;98611.31;104922;1256;60516;-53
2024/01/16 09:59:16;;;;;;;7.20;2.10;;;;;;;-0.39;100.00;98611.46;105090;1253;60360;-55
2024/01/16 10:01:44;;;;;;;4.50;1.70;;;;;;;-0.39;100.00;98618.70;105455;1257;74480;-53
2024/01/16 10:04:13;;;;;;;5.60;1.90;;;;;;;-0.41;100.00;98621.90;105043;1253;64655;-53
2024/01/16 10:06:40;;;;;;;2.70;1.00;;;;;;;-0.42;100.00;98620.35;106441;1254;72794;-53
2024/01/16 10:09:08;;;;;;;3.50;1.40;;;;;;;-0.40;100.00;98619.77;104794;1254;60430;-54
2024/01/16 10:11:36;;;;;;;2.30;1.00;;;;;;;-0.38;100.00;98618.67;104940;1254;61072;-53
2024/01/16 10:14:04;;;;;;;2.10;0.80;;;;;;;-0.36;100.00;98625.34;108757;1253;72673;-54
2024/01/16 10:16:57;;;;;;;1.80;0.80;;;;;;;-0.32;100.00;98627.71;109022;1253;67757;-55
2024/01/16 10:19:29;;;;;;;1.70;1.00;;;;;;;-0.29;100.00;98630.83;109043;1254;72772;-54
2024/01/16 10:22:12;;;;;;;3.90;1.80;;;;;;;-0.27;100.00;98627.59;108928;1253;58191;-55
2024/01/16 10:24:40;;;;;;;2.40;0.90;;;;;;;-0.21;100.00;98633.29;108860;1254;60110;-53
2024/01/16 10:27:08;;;;;;;1.60;0.80;;;;;;;-0.18;100.00;98634.80;109019;1253;72922;-54
2024/01/16 10:29:36;;;;;;;1.70;0.90;;;;;;;-0.14;100.00;98641.56;109115;1253;67539;-54
2024/01/16 10:32:29;;;;;;;3.10;0.90;;;;;;;-0.06;100.00;98646.68;109033;1253;71784;-54
2024/01/16 10:35:10;;;;;;;1.30;1.10;;;;;;;0.01;100.00;98651.83;109007;1255;59337;-53
2024/01/16 10:37:49;;;;;;;3.10;0.90;;;;;;;0.06;100.00;98655.92;109033;1254;59144;-55
2024/01/16 10:40:21;;;;;;;2.50;0.70;;;;;;;0.14;100.00;98654.84;109031;1253;73210;-52
2024/01/16 10:43:03;;;;;;;1.80;0.70;;;;;;;0.24;100.00;98658.84;109085;1253;65918;-53
2024/01/16 10:45:31;;;;;;;1.00;0.60;;;;;;;0.29;100.00;98662.41;109088;1254;71438;-54
2024/01/16 10:48:06;;;;;;;1.90;0.70;;;;;;;0.30;100.00;98662.92;109147;1254;59719;-53
2024/01/16 10:50:39;;;;;;;1.40;0.80;;;;;;;0.28;100.00;98663.48;106148;1254;60435;-53
2024/01/16 10:53:07;;;;;;;4.00;0.90;;;;;;;0.24;100.00;98664.30;105174;1258;72739;-54
2024/01/16 10:55:51;;;;;;;2.10;1.00;;;;;;;0.19;100.00;98663.19;106721;1253;66779;-53
2024/01/16 10:58:23;;;;;;;2.50;1.00;;;;;;;0.17;100.00;98672.77;105741;1253;72759;-52
2024/01/16 11:00:54;;;;;;;1.90;1.00;;;;;;;0.16;100.00;98675.10;107038;1254;60341;-52
2024/01/16 11:03:49;;;;;;;2.50;1.00;;;;;;;0.14;100.00;98673.20;105302;1256;60518;-51
2024/01/16 11:06:17;;;;;;;1.80;0.80;;;;;;;0.08;100.00;98684.80;105802;1257;72685;-53
2024/01/16 11:08:49;;;;;;;2.50;0.70;;;;;;;0.04;100.00;98698.11;105356;1253;66220;-53
2024/01/16 11:11:17;;;;;;;1.60;0.70;;;;;;;-0.01;100.00;98699.46;105244;1257;71446;-53
2024/01/16 11:13:46;;;;;;;2.80;0.70;;;;;;;-0.06;100.00;98699.23;108961;1254;58574;-53
2024/01/16 11:16:14;;;;;;;1.10;0.50;;;;;;;-0.10;100.00;98709.37;105245;1257;61367;-53